Terminal Aerodrome Forecast
Issued by NWS Pocatello, ID

Home | Current Version | Previous Version | Text Only | Print | Product List | Glossary On
Versions: 1 2 3 4 5 6 7 8 9 10 11 12 13 14 15
000
FTUS45 KPIH 030500
TAFPIH
TAF
KPIH 030520Z 0306/0406 21012KT P6SM SCT090
     FM030900 23015KT P6SM VCSH SCT020 BKN050
     FM031100 01011G21KT 1SM -SN SCT004 BKN007
     FM031600 02010G20KT P6SM VCSH SCT020 BKN080
     FM040200 VRB06KT P6SM SCT080=

USA.gov is the U.S. government's official web portal to all federal, state and local government web resources and services.